Time;durP1;ratioP1;P1;durP2;ratioP2;P2;SDS_P1;SDS_P2;PMS_P1;PMS_P2;Temp;Humidity;BMP_temperature;BMP_pressure;BME280_temperature;BME280_humidity;BME280_pressure;Samples;Min_cycle;Max_cycle;Signal;HPM_P1;HPM_P2
2023/12/12 00:00:30;;;;;;;10.10;2.90;;;;;;;5.88;100.00;100668.59;4931637;29;20047;-78
2023/12/12 00:02:57;;;;;;;10.57;2.47;;;;;;;5.88;100.00;100668.59;4918866;29;20493;-78
2023/12/12 00:05:25;;;;;;;13.48;2.58;;;;;;;5.85;100.00;100662.47;4906538;29;20051;-77
2023/12/12 00:07:53;;;;;;;11.57;2.35;;;;;;;5.82;100.00;100662.44;4933780;29;20110;-77
2023/12/12 00:10:20;;;;;;;9.50;2.40;;;;;;;5.79;100.00;100659.75;4950977;28;20047;-78
2023/12/12 00:12:47;;;;;;;10.27;2.38;;;;;;;5.77;100.00;100668.41;4921822;29;20055;-78
2023/12/12 00:15:15;;;;;;;9.75;3.10;;;;;;;5.76;100.00;100667.50;4884847;29;20047;-78
2023/12/12 00:17:42;;;;;;;12.52;2.50;;;;;;;5.75;100.00;100662.28;4933200;29;20043;-78
2023/12/12 00:20:11;;;;;;;12.25;2.83;;;;;;;5.74;100.00;100661.38;4918650;29;20040;-78
2023/12/12 00:22:39;;;;;;;12.93;3.05;;;;;;;5.74;100.00;100655.28;4906530;29;20055;-77
2023/12/12 00:25:06;;;;;;;12.50;2.88;;;;;;;5.74;100.00;100657.88;4915349;29;20055;-78
2023/12/12 00:27:34;;;;;;;11.60;2.40;;;;;;;5.74;100.00;100647.44;4928019;29;20066;-77
2023/12/12 00:30:02;;;;;;;9.35;2.28;;;;;;;5.73;100.00;100646.56;4868550;29;20493;-78
2023/12/12 00:32:29;;;;;;;14.13;2.45;;;;;;;5.72;100.00;100652.63;4932208;29;20094;-78
2023/12/12 00:34:56;;;;;;;17.02;2.78;;;;;;;5.72;100.00;100651.75;4934026;29;20061;-77
2023/12/12 00:37:24;;;;;;;15.05;3.22;;;;;;;5.71;100.00;100645.66;4921561;28;20081;-78
2023/12/12 00:39:52;;;;;;;20.40;2.35;;;;;;;5.70;100.00;100654.31;4919840;29;20047;-77
2023/12/12 00:42:19;;;;;;;9.15;2.38;;;;;;;5.70;100.00;100654.31;4945575;29;20090;-77
2023/12/12 00:44:46;;;;;;;9.10;2.08;;;;;;;5.70;100.00;100646.47;4889028;29;20047;-77
2023/12/12 00:47:13;;;;;;;10.90;3.35;;;;;;;5.69;100.00;100647.34;4914312;29;20421;-77
2023/12/12 00:49:41;;;;;;;11.85;2.50;;;;;;;5.71;100.00;100644.72;4949120;28;20074;-78
2023/12/12 00:52:08;;;;;;;8.40;1.75;;;;;;;5.67;100.00;100651.63;4909851;29;20051;-77
2023/12/12 00:54:36;;;;;;;8.65;2.42;;;;;;;5.68;100.00;100647.31;4931873;29;20043;-78
2023/12/12 00:57:03;;;;;;;15.27;2.13;;;;;;;5.64;100.00;100649.84;4947915;29;20047;-78
2023/12/12 00:59:31;;;;;;;8.25;2.25;;;;;;;5.63;100.00;100655.03;4912829;29;20054;-77
2023/12/12 01:01:58;;;;;;;9.50;2.50;;;;;;;5.60;100.00;100653.25;4888057;29;20055;-78
2023/12/12 01:04:25;;;;;;;8.77;2.35;;;;;;;5.60;100.00;100655.00;4949222;29;20040;-78
2023/12/12 01:06:53;;;;;;;10.70;2.65;;;;;;;5.60;100.00;100655.00;4907336;29;20047;-77
2023/12/12 01:09:21;;;;;;;10.38;2.08;;;;;;;5.59;100.00;100655.84;4901690;29;20043;-78
2023/12/12 01:11:48;;;;;;;7.20;2.08;;;;;;;5.59;100.00;100663.69;4883312;29;20051;-77
2023/12/12 01:14:16;;;;;;;8.13;2.65;;;;;;;5.58;100.00;100664.56;4899767;29;20378;-78
2023/12/12 01:16:43;;;;;;;10.93;2.38;;;;;;;5.57;100.00;100663.66;4912401;28;20418;-78
2023/12/12 01:19:10;;;;;;;7.68;2.03;;;;;;;5.57;100.00;100665.38;4931082;29;20059;-78
2023/12/12 01:21:38;;;;;;;9.38;2.40;;;;;;;5.56;100.00;100663.63;4927958;29;20055;-78
2023/12/12 01:24:05;;;;;;;5.15;2.05;;;;;;;5.55;100.00;100659.25;4883269;29;20066;-78
2023/12/12 01:26:33;;;;;;;6.28;1.65;;;;;;;5.53;100.00;100660.94;4950203;29;20043;-78
2023/12/12 01:29:00;;;;;;;7.28;2.20;;;;;;;5.50;100.00;100672.22;4902854;29;20050;-77
2023/12/12 01:31:28;;;;;;;9.30;2.13;;;;;;;5.46;100.00;100670.38;4894514;29;20047;-77
2023/12/12 01:33:55;;;;;;;13.13;2.47;;;;;;;5.42;100.00;100669.44;4911967;29;20047;-78
2023/12/12 01:36:23;;;;;;;9.98;2.30;;;;;;;5.37;100.00;100673.69;4915994;29;20051;-77
2023/12/12 01:38:50;;;;;;;4.35;1.90;;;;;;;5.32;100.00;100664.88;4902615;29;20048;-78
2023/12/12 01:41:18;;;;;;;6.78;2.60;;;;;;;5.27;100.00;100662.16;4914124;29;20055;-78
2023/12/12 01:43:45;;;;;;;6.80;2.30;;;;;;;5.22;100.00;100658.56;4930372;29;20495;-77
2023/12/12 01:46:17;;;;;;;10.85;2.42;;;;;;;5.20;100.00;100662.88;4896577;29;20056;-78
2023/12/12 01:48:46;;;;;;;10.40;2.35;;;;;;;5.16;100.00;100660.16;4898098;29;20382;-78
2023/12/12 01:51:14;;;;;;;13.48;2.22;;;;;;;5.16;100.00;100665.38;4947503;29;20520;-78
2023/12/12 01:53:47;;;;;;;6.30;1.88;;;;;;;5.16;100.00;100665.38;4890538;29;20050;-78
2023/12/12 01:56:15;;;;;;;12.35;2.17;;;;;;;5.16;100.00;100658.44;4939322;29;20051;-77
2023/12/12 01:58:45;;;;;;;6.65;2.00;;;;;;;5.16;100.00;100665.38;4901380;29;20048;-77
2023/12/12 02:01:13;;;;;;;9.40;2.00;;;;;;;5.15;100.00;100674.06;4930986;28;20054;-78
2023/12/12 02:03:41;;;;;;;11.00;2.45;;;;;;;5.12;100.00;100676.59;4916316;29;20051;-77
2023/12/12 02:06:12;;;;;;;8.88;2.25;;;;;;;5.08;100.00;100681.78;4928468;29;20090;-77
2023/12/12 02:08:41;;;;;;;7.97;2.20;;;;;;;5.09;100.00;100682.66;4899417;29;20484;-77
2023/12/12 02:11:09;;;;;;;13.45;2.40;;;;;;;5.07;100.00;100680.00;4897259;29;20046;-77
2023/12/12 02:13:37;;;;;;;7.47;2.25;;;;;;;5.05;100.00;100665.16;4916391;29;20050;-77
2023/12/12 02:16:05;;;;;;;6.65;1.95;;;;;;;5.04;100.00;100668.59;4882164;29;20047;-77
2023/12/12 02:18:32;;;;;;;8.20;2.65;;;;;;;5.02;100.00;100673.78;4899012;29;20035;-77
2023/12/12 02:21:00;;;;;;;9.00;2.22;;;;;;;5.01;100.00;100687.69;4927076;29;20059;-79
2023/12/12 02:23:29;;;;;;;8.25;2.10;;;;;;;4.96;100.00;100681.47;4927771;29;20059;-77
2023/12/12 02:25:58;;;;;;;10.65;2.40;;;;;;;4.93;100.00;100685.75;4902852;29;20086;-79
2023/12/12 02:28:26;;;;;;;6.35;2.13;;;;;;;4.89;100.00;100690.00;4913936;29;20493;-77
2023/12/12 02:30:55;;;;;;;14.07;3.25;;;;;;;4.86;100.00;100690.81;4913263;29;20074;-77
2023/12/12 02:33:22;;;;;;;5.68;2.00;;;;;;;4.81;100.00;100689.81;4914261;29;20048;-78
2023/12/12 02:35:50;;;;;;;4.18;1.85;;;;;;;4.78;100.00;100686.25;4901458;29;20055;-77
2023/12/12 02:38:17;;;;;;;6.88;2.33;;;;;;;4.75;100.00;100683.59;4930326;29;20631;-78
2023/12/12 02:40:44;;;;;;;9.98;2.13;;;;;;;4.71;100.00;100689.56;4900521;29;20058;-77
2023/12/12 02:43:12;;;;;;;7.30;2.38;;;;;;;4.67;100.00;100681.66;4904844;29;20039;-77
2023/12/12 02:45:39;;;;;;;5.45;2.30;;;;;;;4.64;100.00;100683.31;4913051;29;20062;-77
2023/12/12 02:48:08;;;;;;;6.53;2.58;;;;;;;4.59;100.00;100675.34;4893576;29;20545;-77
2023/12/12 02:50:35;;;;;;;12.10;2.78;;;;;;;4.54;100.00;100684.81;4883039;29;20055;-77
2023/12/12 02:53:02;;;;;;;6.70;2.17;;;;;;;4.47;100.00;100682.91;4897166;29;20051;-77
2023/12/12 02:55:30;;;;;;;7.78;2.90;;;;;;;4.41;100.00;100686.25;4929870;29;20055;-77
2023/12/12 02:57:57;;;;;;;8.63;2.58;;;;;;;4.37;100.00;100688.75;4870758;29;20058;-77
2023/12/12 03:00:25;;;;;;;6.75;2.50;;;;;;;4.35;100.00;100688.69;4946163;29;20533;-77
2023/12/12 03:02:52;;;;;;;6.55;2.40;;;;;;;4.36;100.00;100686.97;4928446;29;20485;-77
2023/12/12 03:05:20;;;;;;;9.27;2.75;;;;;;;4.33;100.00;100687.78;4906355;29;20051;-78
2023/12/12 03:07:47;;;;;;;5.63;2.67;;;;;;;4.32;100.00;100686.00;4904980;29;20051;-78
2023/12/12 03:10:14;;;;;;;5.00;2.20;;;;;;;4.33;100.00;100679.94;4916832;29;20516;-77
2023/12/12 03:12:43;;;;;;;4.75;2.72;;;;;;;4.33;100.00;100685.16;4908219;29;20047;-77
2023/12/12 03:15:11;;;;;;;8.18;2.90;;;;;;;4.35;100.00;100683.47;4928373;29;20058;-77
2023/12/12 03:17:38;;;;;;;10.77;3.00;;;;;;;4.36;100.00;100686.97;4913841;29;20055;-77
2023/12/12 03:20:07;;;;;;;5.53;2.47;;;;;;;4.38;100.00;100685.28;4900516;29;20043;-78
2023/12/12 03:22:34;;;;;;;7.78;2.70;;;;;;;4.39;100.00;100684.44;4917444;28;20062;-78
2023/12/12 03:25:02;;;;;;;9.25;3.25;;;;;;;4.41;100.00;100685.38;4914132;29;20070;-78
2023/12/12 03:27:29;;;;;;;6.35;2.20;;;;;;;4.44;100.00;100680.19;4933798;29;20054;-78
2023/12/12 03:29:57;;;;;;;11.07;2.88;;;;;;;4.45;100.00;100674.16;4891041;29;20047;-78
2023/12/12 03:32:24;;;;;;;6.25;2.75;;;;;;;4.48;100.00;100667.28;4951883;29;20051;-78
2023/12/12 03:34:52;;;;;;;6.30;2.40;;;;;;;4.51;100.00;100670.81;4909831;29;20485;-77
2023/12/12 03:37:19;;;;;;;10.80;3.00;;;;;;;4.52;100.00;100681.28;4933301;29;20431;-77
2023/12/12 03:39:47;;;;;;;8.35;3.00;;;;;;;4.50;100.00;100664.72;4904253;29;20052;-77
2023/12/12 03:42:14;;;;;;;13.23;2.97;;;;;;;4.50;100.00;100680.38;4921121;29;20087;-77
2023/12/12 03:44:42;;;;;;;5.55;2.25;;;;;;;4.49;100.00;100674.25;4923249;29;20051;-77
2023/12/12 03:47:09;;;;;;;6.63;2.28;;;;;;;4.48;100.00;100674.25;4931815;29;20066;-77
2023/12/12 03:49:36;;;;;;;6.65;2.85;;;;;;;4.51;100.00;100673.44;4917699;29;20055;-78
2023/12/12 03:52:05;;;;;;;9.55;2.65;;;;;;;4.48;100.00;100671.63;4902938;29;20054;-77
2023/12/12 03:54:32;;;;;;;4.80;2.53;;;;;;;4.45;100.00;100668.94;4951519;29;20047;-77
2023/12/12 03:56:59;;;;;;;8.73;2.80;;;;;;;4.45;100.00;100664.59;4930815;29;20059;-77
2023/12/12 03:59:27;;;;;;;10.85;4.25;;;;;;;4.44;100.00;100665.44;4894559;29;20065;-77
2023/12/12 04:01:54;;;;;;;10.00;2.67;;;;;;;4.44;100.00;100659.31;4930708;29;20431;-77
2023/12/12 04:04:22;;;;;;;10.55;3.60;;;;;;;4.44;100.00;100657.63;4950345;29;20051;-77
2023/12/12 04:06:49;;;;;;;6.50;2.28;;;;;;;4.44;100.00;100655.00;4907613;29;20047;-77
2023/12/12 04:09:17;;;;;;;7.95;2.28;;;;;;;4.43;100.00;100655.84;4896366;29;20046;-77
2023/12/12 04:11:44;;;;;;;14.82;2.22;;;;;;;4.44;100.00;100660.22;4924109;29;20055;-77
2023/12/12 04:14:11;;;;;;;9.10;2.35;;;;;;;4.44;100.00;100667.16;4892483;29;20058;-77
2023/12/12 04:16:39;;;;;;;9.45;2.90;;;;;;;4.45;100.00;100658.50;4914199;29;20066;-77
2023/12/12 04:19:07;;;;;;;3.50;2.53;;;;;;;4.45;100.00;100654.16;4913788;29;20077;-77
2023/12/12 04:21:34;;;;;;;6.63;2.92;;;;;;;4.45;100.00;100658.50;4900496;29;20051;-78
2023/12/12 04:24:02;;;;;;;7.70;2.58;;;;;;;4.46;100.00;100661.16;4908961;28;20430;-78
2023/12/12 04:26:30;;;;;;;6.45;2.45;;;;;;;4.46;100.00;100655.94;4950275;29;20050;-77
2023/12/12 04:28:57;;;;;;;8.45;2.90;;;;;;;4.48;100.00;100656.84;4929614;29;20047;-78
2023/12/12 04:31:25;;;;;;;5.80;3.20;;;;;;;4.51;100.00;100656.03;4892017;29;20055;-77
2023/12/12 04:33:52;;;;;;;8.50;2.80;;;;;;;4.51;100.00;100658.63;4925196;29;20058;-77
2023/12/12 04:36:20;;;;;;;5.75;3.22;;;;;;;4.53;100.00;100651.72;4901305;29;20051;-78
2023/12/12 04:38:48;;;;;;;5.82;2.83;;;;;;;4.56;100.00;100667.47;4885262;29;20059;-77
2023/12/12 04:41:17;;;;;;;13.15;2.95;;;;;;;4.58;100.00;100667.53;4922343;29;20051;-77
2023/12/12 04:43:44;;;;;;;6.25;2.58;;;;;;;4.59;100.00;100675.34;4915974;29;20043;-77
2023/12/12 04:46:19;;;;;;;8.95;2.85;;;;;;;4.60;100.00;100673.66;4905639;29;24813;-77
2023/12/12 04:48:47;;;;;;;6.63;2.78;;;;;;;4.61;100.00;100667.56;4948062;29;20493;-77
2023/12/12 04:51:15;;;;;;;5.75;2.92;;;;;;;4.61;100.00;100678.00;4915563;29;20426;-77
2023/12/12 04:53:42;;;;;;;4.25;2.55;;;;;;;4.61;100.00;100670.19;4923986;29;20058;-77
2023/12/12 04:56:09;;;;;;;6.38;2.53;;;;;;;4.60;100.00;100673.66;4912667;29;20043;-77
2023/12/12 04:58:37;;;;;;;3.03;2.67;;;;;;;4.57;100.00;100664.00;4931625;29;20051;-78
2023/12/12 05:01:04;;;;;;;7.88;2.55;;;;;;;4.55;100.00;100665.69;4882780;29;24135;-77
2023/12/12 05:03:32;;;;;;;6.38;2.42;;;;;;;4.53;100.00;100663.91;4877548;28;20054;-77
2023/12/12 05:06:00;;;;;;;6.88;2.55;;;;;;;4.51;100.00;100670.81;4938008;29;20047;-77
2023/12/12 05:08:28;;;;;;;8.63;3.08;;;;;;;4.50;100.00;100667.34;4916939;29;20055;-77
2023/12/12 05:10:55;;;;;;;8.10;2.63;;;;;;;4.48;100.00;100669.91;4891148;29;20043;-77
2023/12/12 05:13:23;;;;;;;5.00;2.10;;;;;;;4.51;100.00;100676.03;4943622;29;20046;-78
2023/12/12 05:15:51;;;;;;;7.47;2.53;;;;;;;4.51;100.00;100673.44;4905051;29;20059;-77
2023/12/12 05:18:18;;;;;;;7.50;2.50;;;;;;;4.51;100.00;100670.81;4867169;29;20051;-77
2023/12/12 05:20:46;;;;;;;6.93;2.63;;;;;;;4.51;100.00;100663.88;4925371;29;20043;-77
2023/12/12 05:23:13;;;;;;;10.13;2.88;;;;;;;4.52;100.00;100673.47;4909329;29;20052;-78
2023/12/12 05:25:41;;;;;;;5.53;2.55;;;;;;;4.54;100.00;100670.88;4923272;28;20077;-77
2023/12/12 05:28:09;;;;;;;9.18;2.75;;;;;;;4.53;100.00;100672.59;4891406;29;20059;-77
2023/12/12 05:30:36;;;;;;;8.15;2.42;;;;;;;4.54;100.00;100670.88;4917628;29;20058;-77
2023/12/12 05:33:07;;;;;;;;;;;;;;;4.53;100.00;100671.72;4855974;29;20077;-77
2023/12/12 05:35:34;;;;;;;5.63;2.30;;;;;;;4.54;100.00;100670.88;4926486;29;19922;-77
2023/12/12 05:38:06;;;;;;;4.72;2.45;;;;;;;4.55;100.00;100670.03;4906259;29;20047;-78
2023/12/12 05:40:35;;;;;;;7.07;2.10;;;;;;;4.53;100.00;100664.78;4861625;29;20055;-78
2023/12/12 05:43:03;;;;;;;6.22;2.22;;;;;;;4.54;100.00;100663.94;4928914;29;20054;-78
2023/12/12 05:45:31;;;;;;;9.55;2.50;;;;;;;4.56;100.00;100654.44;4911963;29;20055;-78
2023/12/12 05:47:59;;;;;;;12.05;2.78;;;;;;;4.56;100.00;100659.66;4922850;28;20579;-77
2023/12/12 05:50:26;;;;;;;7.85;2.40;;;;;;;4.57;100.00;100655.31;4903839;29;20055;-76
2023/12/12 05:52:54;;;;;;;10.48;2.60;;;;;;;4.59;100.00;100658.81;4935557;29;20053;-77
2023/12/12 05:55:21;;;;;;;16.35;2.75;;;;;;;4.58;100.00;100655.34;4887127;29;20130;-78
2023/12/12 05:57:49;;;;;;;5.97;3.00;;;;;;;4.57;100.00;100658.78;4883316;29;20060;-76
2023/12/12 06:00:16;;;;;;;6.28;2.55;;;;;;;4.57;100.00;100656.16;4916931;29;20481;-77
2023/12/12 06:02:44;;;;;;;6.53;2.75;;;;;;;4.56;100.00;100649.22;4898380;29;24749;-77
2023/12/12 06:05:11;;;;;;;9.40;3.40;;;;;;;4.56;100.00;100657.03;4911934;29;20111;-77
2023/12/12 06:07:41;;;;;;;6.95;2.60;;;;;;;4.56;100.00;100653.56;4923599;29;20043;-77
2023/12/12 06:10:10;;;;;;;3.43;1.93;;;;;;;4.56;100.00;100656.16;4936695;28;20516;-76
2023/12/12 06:12:37;;;;;;;8.65;2.40;;;;;;;4.55;100.00;100650.03;4911008;29;20298;-78
2023/12/12 06:15:07;;;;;;;6.47;2.63;;;;;;;4.55;100.00;100649.16;4949066;28;20058;-77
2023/12/12 06:17:35;;;;;;;7.85;3.00;;;;;;;4.54;100.00;100656.13;4941932;29;20055;-77
2023/12/12 06:20:04;;;;;;;3.80;2.30;;;;;;;4.55;100.00;100651.78;4898436;29;20054;-77
2023/12/12 06:22:31;;;;;;;8.82;3.20;;;;;;;4.53;100.00;100649.13;4928015;29;20054;-77
2023/12/12 06:24:59;;;;;;;5.78;2.80;;;;;;;4.54;100.00;100652.59;4891973;29;20064;-78
2023/12/12 06:27:26;;;;;;;7.28;3.22;;;;;;;4.52;100.00;100644.75;4887924;29;20051;-77
2023/12/12 06:29:54;;;;;;;7.18;3.20;;;;;;;4.53;100.00;100659.56;4929658;28;20047;-77
2023/12/12 06:32:22;;;;;;;10.02;3.72;;;;;;;4.51;100.00;100660.38;4927530;28;20043;-77
2023/12/12 06:34:49;;;;;;;9.85;3.17;;;;;;;4.49;100.00;100656.00;4900383;29;20058;-79
2023/12/12 06:37:17;;;;;;;7.60;2.60;;;;;;;4.48;100.00;100648.16;4899429;29;20056;-77
2023/12/12 06:39:45;;;;;;;6.00;2.33;;;;;;;4.48;100.00;100656.84;4910858;29;20047;-78
2023/12/12 06:42:12;;;;;;;7.13;2.00;;;;;;;4.47;100.00;100655.06;4925408;29;20062;-78
2023/12/12 06:44:39;;;;;;;4.95;1.95;;;;;;;4.48;100.00;100655.97;4915662;29;20051;-78
2023/12/12 06:47:07;;;;;;;5.22;2.22;;;;;;;4.47;100.00;100655.06;4927145;29;20043;-76
2023/12/12 06:49:35;;;;;;;5.10;1.98;;;;;;;4.47;100.00;100654.19;4885508;29;20051;-77
2023/12/12 06:52:03;;;;;;;4.22;1.90;;;;;;;4.46;100.00;100661.16;4914773;29;20047;-77
2023/12/12 06:54:30;;;;;;;6.20;2.35;;;;;;;4.45;100.00;100655.88;4909941;29;20052;-76
2023/12/12 06:56:58;;;;;;;4.85;2.45;;;;;;;4.44;100.00;100648.88;4919189;29;20043;-77
2023/12/12 06:59:25;;;;;;;5.93;1.90;;;;;;;4.41;100.00;100659.28;4888708;29;20051;-77
2023/12/12 07:01:53;;;;;;;9.52;2.05;;;;;;;4.39;100.00;100660.97;4890229;29;20052;-78
2023/12/12 07:04:21;;;;;;;12.63;2.65;;;;;;;4.35;100.00;100654.78;4898528;29;20051;-77
2023/12/12 07:06:49;;;;;;;4.97;2.60;;;;;;;4.32;100.00;100659.03;4901101;29;20497;-78
2023/12/12 07:09:16;;;;;;;5.47;2.80;;;;;;;4.28;100.00;100655.47;4912616;29;20051;-77
2023/12/12 07:11:44;;;;;;;11.48;2.80;;;;;;;4.25;100.00;100658.88;4885504;29;20047;-77
2023/12/12 07:14:29;;;;;;;3.45;2.33;;;;;;;4.22;100.00;100661.41;4874864;29;20046;-77
2023/12/12 07:17:14;;;;;;;11.93;3.22;;;;;;;4.19;100.00;100653.47;4921714;29;20063;-77
2023/12/12 07:19:41;;;;;;;10.68;3.10;;;;;;;4.16;100.00;100658.63;4908408;29;20047;-78
2023/12/12 07:22:09;;;;;;;10.02;3.78;;;;;;;4.10;100.00;100659.38;4901270;29;20051;-77
2023/12/12 07:24:40;;;;;;;8.73;3.88;;;;;;;4.08;100.00;100660.16;4923724;29;20047;-78
2023/12/12 07:27:08;;;;;;;8.75;4.50;;;;;;;4.03;100.00;100666.97;4942670;29;20442;-77
2023/12/12 07:29:36;;;;;;;11.38;4.22;;;;;;;4.00;100.00;100666.88;4920050;29;20059;-79
2023/12/12 07:32:04;;;;;;;6.60;4.22;;;;;;;3.97;100.00;100666.78;4897644;29;20043;-77
2023/12/12 07:34:32;;;;;;;8.30;4.38;;;;;;;3.93;100.00;100664.94;4904502;29;20085;-77
2023/12/12 07:36:59;;;;;;;9.90;4.72;;;;;;;3.90;100.00;100660.53;4898736;29;20488;-77
2023/12/12 07:39:27;;;;;;;10.15;4.97;;;;;;;3.86;100.00;100664.78;4912547;29;20081;-77
2023/12/12 07:41:54;;;;;;;10.88;5.03;;;;;;;3.86;100.00;100672.63;4886782;29;20039;-78
2023/12/12 07:44:22;;;;;;;9.77;5.65;;;;;;;3.83;100.00;100658.59;4928326;29;20047;-77
2023/12/12 07:46:49;;;;;;;21.90;6.93;;;;;;;3.82;100.00;100662.94;4881918;29;20055;-77
2023/12/12 07:49:16;;;;;;;19.60;7.05;;;;;;;3.83;100.00;100653.41;4912954;29;20055;-77
2023/12/12 07:51:44;;;;;;;15.13;7.00;;;;;;;3.83;100.00;100656.00;4905138;29;20036;-77
2023/12/12 07:54:12;;;;;;;14.85;7.30;;;;;;;3.84;100.00;100652.56;4943835;29;20417;-76
2023/12/12 07:56:39;;;;;;;13.15;7.38;;;;;;;3.82;100.00;100652.53;4934488;29;20055;-77
2023/12/12 07:59:06;;;;;;;20.17;7.47;;;;;;;3.85;100.00;100662.13;4907826;29;20047;-77
2023/12/12 08:01:36;;;;;;;14.45;8.60;;;;;;;3.84;100.00;100658.66;4890842;29;20520;-78
2023/12/12 08:04:05;;;;;;;22.58;8.15;;;;;;;3.85;100.00;100656.91;4947845;29;20047;-78
2023/12/12 08:06:33;;;;;;;23.90;7.97;;;;;;;3.85;100.00;100655.19;4919273;29;20075;-76
2023/12/12 08:09:01;;;;;;;23.90;7.95;;;;;;;3.87;100.00;100666.53;4906239;29;20052;-77
2023/12/12 08:11:29;;;;;;;17.75;8.18;;;;;;;3.89;100.00;100663.97;4932370;29;20051;-78
2023/12/12 08:13:56;;;;;;;14.75;8.00;;;;;;;3.93;100.00;100657.13;4935384;29;20051;-77
2023/12/12 08:16:24;;;;;;;15.65;8.30;;;;;;;3.96;100.00;100655.50;4913547;28;20513;-77
2023/12/12 08:18:51;;;;;;;18.70;8.13;;;;;;;3.97;100.00;100658.97;4942481;28;20070;-77
2023/12/12 08:21:20;;;;;;;16.70;9.10;;;;;;;4.00;100.00;100656.47;4946886;29;20039;-77
2023/12/12 08:23:48;;;;;;;24.83;9.85;;;;;;;4.02;100.00;100655.66;4889932;29;20043;-77
2023/12/12 08:26:16;;;;;;;32.95;9.55;;;;;;;4.04;100.00;100648.75;4946831;29;20421;-78
2023/12/12 08:28:43;;;;;;;30.23;10.90;;;;;;;4.08;100.00;100657.53;4918597;29;20452;-77
2023/12/12 08:31:11;;;;;;;25.88;10.70;;;;;;;4.10;100.00;100653.25;4916595;29;20051;-77
2023/12/12 08:33:38;;;;;;;26.63;10.23;;;;;;;4.12;100.00;100651.59;4889432;29;20412;-78
2023/12/12 08:36:07;;;;;;;35.55;10.18;;;;;;;4.17;100.00;100654.28;4925049;29;20136;-77
2023/12/12 08:38:34;;;;;;;37.80;11.25;;;;;;;4.19;100.00;100660.44;4921714;29;20481;-77
2023/12/12 08:41:01;;;;;;;36.03;11.05;;;;;;;4.21;100.00;100651.78;4908091;29;20047;-77
2023/12/12 08:43:28;;;;;;;35.58;11.70;;;;;;;4.24;100.00;100645.78;4918867;29;20422;-77
2023/12/12 08:45:56;;;;;;;36.50;11.60;;;;;;;4.27;100.00;100635.41;4925676;29;20496;-77
2023/12/12 08:48:24;;;;;;;46.58;11.77;;;;;;;4.29;100.00;100639.84;4904668;29;20054;-77
2023/12/12 08:50:51;;;;;;;48.75;11.10;;;;;;;4.30;100.00;100644.22;4911884;29;20524;-77
2023/12/12 08:53:26;;;;;;;65.18;12.82;;;;;;;4.34;100.00;100645.16;4887541;29;20063;-79
2023/12/12 08:55:55;;;;;;;61.78;13.55;;;;;;;4.36;100.00;100637.38;4916047;29;20050;-78
2023/12/12 08:58:25;;;;;;;45.90;12.63;;;;;;;4.38;100.00;100636.56;4893275;29;20059;-77
2023/12/12 09:00:53;;;;;;;;;;;;;;;4.40;100.00;100634.88;4919997;29;20051;-77
2023/12/12 09:03:21;;;;;;;36.17;11.82;;;;;;;4.43;100.00;100639.31;4900801;29;19923;-77
2023/12/12 09:05:49;;;;;;;33.17;12.27;;;;;;;4.46;100.00;100634.16;4904334;29;20051;-77
2023/12/12 09:08:17;;;;;;;57.28;11.75;;;;;;;4.51;100.00;100636.88;4942091;29;20046;-77
2023/12/12 09:10:45;;;;;;;20.65;10.32;;;;;;;4.53;100.00;100636.06;4904829;29;20071;-78
2023/12/12 09:13:13;;;;;;;69.25;14.85;;;;;;;4.57;100.00;100640.50;4912519;29;20055;-77
2023/12/12 09:15:40;;;;;;;53.53;14.10;;;;;;;4.59;100.00;100622.28;4922219;29;20062;-77
2023/12/12 09:18:07;;;;;;;35.30;12.40;;;;;;;4.63;100.00;100631.94;4903143;29;20548;-77
2023/12/12 09:20:47;;;;;;;47.47;13.27;;;;;;;4.66;100.00;100632.03;4915737;29;20058;-78
2023/12/12 09:23:16;;;;;;;67.32;14.25;;;;;;;4.69;100.00;100622.56;4882879;29;20066;-77
2023/12/12 09:25:43;;;;;;;75.82;15.45;;;;;;;4.74;100.00;100619.16;4865159;29;20058;-77
2023/12/12 09:28:11;;;;;;;35.72;13.15;;;;;;;4.81;100.00;100619.34;4931427;29;20059;-78
2023/12/12 09:30:39;;;;;;;39.15;15.50;;;;;;;4.91;100.00;100609.97;4907986;29;20067;-79
2023/12/12 09:33:07;;;;;;;28.40;13.30;;;;;;;4.98;100.00;100601.44;4922046;29;20047;-78
2023/12/12 09:35:36;;;;;;;21.83;13.10;;;;;;;5.04;100.00;100617.22;4862314;29;20078;-78
2023/12/12 09:38:03;;;;;;;21.85;11.98;;;;;;;5.08;100.00;100616.47;4930395;29;20559;-77
2023/12/12 09:40:34;;;;;;;22.48;12.05;;;;;;;5.14;100.00;100612.22;4912235;28;20289;-77
2023/12/12 09:43:06;;;;;;;22.27;12.82;;;;;;;5.18;100.00;100617.56;4910176;29;20061;-78
2023/12/12 09:45:33;;;;;;;28.92;12.43;;;;;;;5.22;100.00;100613.28;4921247;29;20051;-77
2023/12/12 09:48:01;;;;;;;27.85;13.35;;;;;;;5.27;100.00;100609.91;4896951;29;20152;-77
2023/12/12 09:50:30;;;;;;;22.35;12.55;;;;;;;5.36;100.00;100610.94;4877576;29;20055;-77
2023/12/12 09:52:59;;;;;;;22.50;12.20;;;;;;;5.40;100.00;100603.19;4916414;29;20062;-78
2023/12/12 09:55:28;;;;;;;18.45;11.88;;;;;;;5.45;100.00;100605.91;4909864;29;20054;-78
2023/12/12 09:57:55;;;;;;;21.30;11.45;;;;;;;5.47;100.00;100604.22;4924754;29;20043;-78
2023/12/12 10:00:24;;;;;;;23.90;12.48;;;;;;;5.46;100.00;100598.09;4911493;29;20505;-78
2023/12/12 10:02:57;;;;;;;23.33;12.88;;;;;;;5.46;100.00;100602.44;4938142;29;20837;-79
2023/12/12 10:05:27;;;;;;;52.47;14.27;;;;;;;5.45;100.00;100592.84;4920396;29;20051;-78
2023/12/12 10:07:55;;;;;;;59.63;14.20;;;;;;;5.44;100.00;100580.59;4901580;29;20046;-77
2023/12/12 10:10:31;;;;;;;64.80;17.85;;;;;;;5.43;100.00;100579.75;4952802;28;20060;-77
2023/12/12 10:12:59;;;;;;;66.22;14.65;;;;;;;5.40;100.00;100573.56;4903842;29;20047;-78
2023/12/12 10:15:27;;;;;;;73.43;15.52;;;;;;;5.40;100.00;100571.81;4931599;29;20058;-79
2023/12/12 10:17:59;;;;;;;85.70;16.80;;;;;;;5.40;100.00;100560.50;4905170;29;20062;-78
2023/12/12 10:20:30;;;;;;;77.10;15.38;;;;;;;5.42;100.00;100566.63;4918344;29;20047;-78
2023/12/12 10:22:59;;;;;;;126.22;17.63;;;;;;;5.40;100.00;100547.44;4907107;29;20800;-78
2023/12/12 10:25:35;;;;;;;71.68;12.52;;;;;;;5.38;100.00;100551.75;4914964;29;20055;-78
2023/12/12 10:28:03;;;;;;;65.72;12.55;;;;;;;5.36;100.00;100545.63;4876077;28;20501;-77
2023/12/12 10:30:30;;;;;;;83.15;15.43;;;;;;;5.36;100.00;100543.88;4927526;29;20047;-78
2023/12/12 10:32:58;;;;;;;86.32;14.02;;;;;;;5.38;100.00;100534.34;4877650;29;20094;-77
2023/12/12 10:35:25;;;;;;;89.32;14.88;;;;;;;5.39;100.00;100533.50;4912779;29;20043;-77
2023/12/12 10:37:53;;;;;;;84.38;13.48;;;;;;;5.39;100.00;100532.63;4910213;29;20801;-77
2023/12/12 10:40:22;;;;;;;85.88;13.18;;;;;;;5.38;100.00;100534.34;4896303;29;20051;-77
2023/12/12 10:42:51;;;;;;;101.05;14.77;;;;;;;5.36;100.00;100530.81;4878054;28;20136;-78
2023/12/12 10:45:22;;;;;;;94.97;16.20;;;;;;;5.35;100.00;100518.63;4930076;29;20058;-77
2023/12/12 10:47:51;;;;;;;127.28;20.95;;;;;;;5.35;100.00;100521.22;4913126;29;20043;-80
2023/12/12 10:50:19;;;;;;;120.40;17.50;;;;;;;5.35;100.00;100513.38;4909183;29;20051;-77
2023/12/12 10:52:52;;;;;;;104.65;15.32;;;;;;;5.35;100.00;100507.25;4901307;29;20847;-78
2023/12/12 10:55:21;;;;;;;104.28;16.77;;;;;;;5.33;100.00;100512.47;4929143;29;20425;-78
2023/12/12 10:57:51;;;;;;;127.20;16.80;;;;;;;5.33;100.00;100511.59;4908834;29;20058;-78
2023/12/12 11:00:20;;;;;;;145.13;18.10;;;;;;;5.33;100.00;100508.97;4904365;29;20067;-78
2023/12/12 11:02:48;;;;;;;82.20;16.23;;;;;;;5.30;100.00;100512.41;4901572;29;20112;-78
2023/12/12 11:05:16;;;;;;;139.35;20.33;;;;;;;5.29;100.00;100502.81;4915524;29;20070;-77
2023/12/12 11:07:48;;;;;;;64.53;16.30;;;;;;;5.28;100.00;100501.06;4874958;28;20059;-77
2023/12/12 11:10:19;;;;;;;125.55;20.45;;;;;;;5.23;100.00;100489.63;4931310;28;20046;-77
2023/12/12 11:12:57;;;;;;;142.52;23.75;;;;;;;5.22;100.00;100487.88;4937390;28;20046;-77
2023/12/12 11:15:27;;;;;;;120.25;23.35;;;;;;;5.24;100.00;100484.44;4900698;29;20067;-78
2023/12/12 11:17:56;;;;;;;144.98;27.50;;;;;;;5.25;100.00;100475.75;4927467;28;20043;-78
2023/12/12 11:20:24;;;;;;;102.55;19.20;;;;;;;5.28;100.00;100467.09;4923753;28;20055;-80
2023/12/12 11:22:53;;;;;;;133.05;21.42;;;;;;;5.28;100.00;100467.09;4884649;28;20047;-78